Time;durP1;ratioP1;P1;durP2;ratioP2;P2;SDS_P1;SDS_P2;PMS_P1;PMS_P2;Temp;Humidity;BMP_temperature;BMP_pressure;BME280_temperature;BME280_humidity;BME280_pressure;Samples;Min_cycle;Max_cycle;Signal;HPM_P1;HPM_P2
2023/12/29 00:00:29;;;;;;;6.90;1.97;;;;;;;10.17;100.00;100791.75;5131424;27;20026;-36
2023/12/29 00:02:54;;;;;;;7.20;1.90;;;;;;;10.21;100.00;100790.25;5131662;27;20046;-36
2023/12/29 00:05:20;;;;;;;7.30;2.23;;;;;;;10.13;100.00;100761.66;5130362;27;20076;-36
2023/12/29 00:07:45;;;;;;;5.67;1.60;;;;;;;10.17;100.00;100783.63;5121013;27;20257;-36
2023/12/29 00:10:10;;;;;;;8.00;2.97;;;;;;;10.16;100.00;100788.22;5117450;28;20269;-36
2023/12/29 00:12:36;;;;;;;7.33;2.60;;;;;;;10.16;100.00;100779.28;5117532;28;20027;-36
2023/12/29 00:15:02;;;;;;;6.32;1.98;;;;;;;10.17;100.00;100780.94;5116641;28;20070;-36
2023/12/29 00:17:27;;;;;;;6.47;1.77;;;;;;;10.17;100.00;100778.22;5117079;28;20038;-36
2023/12/29 00:19:53;;;;;;;7.73;2.10;;;;;;;10.18;100.00;100779.88;5116710;28;20379;-36
2023/12/29 00:22:19;;;;;;;6.35;1.90;;;;;;;10.15;100.00;100770.38;5117252;28;20019;-36
2023/12/29 00:24:44;;;;;;;6.82;1.77;;;;;;;10.17;100.00;100776.34;5116301;28;20027;-36
2023/12/29 00:27:10;;;;;;;8.05;1.50;;;;;;;10.11;100.00;100765.66;5116577;28;20027;-36
2023/12/29 00:29:35;;;;;;;8.10;2.25;;;;;;;10.13;100.00;100772.44;5116512;28;20023;-36
2023/12/29 00:32:02;;;;;;;6.17;1.73;;;;;;;10.12;100.00;100761.88;5116563;28;20361;-36
2023/12/29 00:34:27;;;;;;;6.38;1.90;;;;;;;10.10;100.00;100772.09;5116405;28;20265;-36
2023/12/29 00:36:52;;;;;;;6.10;1.80;;;;;;;10.10;100.00;100758.56;5116052;28;20114;-36
2023/12/29 00:39:18;;;;;;;6.70;1.87;;;;;;;10.09;100.00;100749.66;5116050;28;20106;-36
2023/12/29 00:41:43;;;;;;;6.27;1.83;;;;;;;10.12;100.00;100751.06;5116640;27;20047;-36
2023/12/29 00:44:08;;;;;;;8.17;2.10;;;;;;;10.07;100.00;100746.38;5116472;28;20303;-36
2023/12/29 00:46:34;;;;;;;6.90;1.90;;;;;;;10.06;100.00;100750.94;5116300;28;20027;-36
2023/12/29 00:48:59;;;;;;;6.35;1.83;;;;;;;10.02;100.00;100748.94;5116959;28;20023;-36
2023/12/29 00:51:24;;;;;;;9.40;2.10;;;;;;;9.93;100.00;100745.72;5116246;28;20028;-36
2023/12/29 00:53:50;;;;;;;13.13;2.87;;;;;;;9.87;100.00;100741.25;5116055;28;20027;-36
2023/12/29 00:56:15;;;;;;;9.50;2.53;;;;;;;9.79;100.00;100734.28;5115944;28;20053;-36
2023/12/29 00:58:40;;;;;;;7.83;2.07;;;;;;;9.72;100.00;100747.03;5116044;28;20106;-36
2023/12/29 01:01:11;;;;;;;7.53;1.73;;;;;;;9.69;100.00;100743.97;5115733;28;20050;-36
2023/12/29 01:03:37;;;;;;;7.30;2.08;;;;;;;9.63;100.00;100739.50;5115603;28;20027;-36
2023/12/29 01:06:02;;;;;;;10.38;2.33;;;;;;;9.61;100.00;100753.19;5116469;28;20038;-36
2023/12/29 01:08:28;;;;;;;8.63;1.98;;;;;;;9.53;100.00;100724.66;5115835;28;20030;-36
2023/12/29 01:10:53;;;;;;;9.65;2.20;;;;;;;9.58;100.00;100734.78;5116070;28;20089;-36
2023/12/29 01:13:19;;;;;;;7.28;2.10;;;;;;;9.57;100.00;100743.91;5115339;28;20035;-36
2023/12/29 01:15:45;;;;;;;11.30;2.80;;;;;;;9.46;100.00;100739.25;5116192;28;20024;-36
2023/12/29 01:18:11;;;;;;;7.35;1.90;;;;;;;9.45;100.00;100751.94;5114727;28;20822;-36
2023/12/29 01:20:36;;;;;;;8.02;2.20;;;;;;;9.40;100.00;100746.38;5114929;28;20081;-36
2023/12/29 01:23:02;;;;;;;9.70;2.07;;;;;;;9.33;100.00;100744.84;5115535;28;20031;-36
2023/12/29 01:25:27;;;;;;;9.63;1.80;;;;;;;9.24;100.00;100730.81;5116074;27;20402;-36
2023/12/29 01:27:52;;;;;;;6.57;2.10;;;;;;;9.18;100.00;100734.41;5115994;28;20023;-36
2023/12/29 01:30:17;;;;;;;6.10;1.90;;;;;;;9.09;100.00;100744.66;5115385;28;20304;-36
2023/12/29 01:32:43;;;;;;;11.10;2.43;;;;;;;9.05;100.00;100732.66;5115377;28;20023;-36
2023/12/29 01:35:08;;;;;;;6.50;1.70;;;;;;;9.02;100.00;100728.53;5115207;28;20080;-36
2023/12/29 01:37:33;;;;;;;12.07;2.00;;;;;;;8.96;100.00;100737.53;5115032;27;20265;-36
2023/12/29 01:39:59;;;;;;;8.40;2.10;;;;;;;8.93;100.00;100727.19;5115232;28;20089;-36
2023/12/29 01:42:24;;;;;;;9.50;2.05;;;;;;;8.91;100.00;100737.38;5115753;28;20777;-36
2023/12/29 01:44:53;;;;;;;7.70;1.70;;;;;;;8.82;100.00;100717.13;5115123;28;20360;-36
2023/12/29 01:47:20;;;;;;;9.40;2.10;;;;;;;8.84;100.00;100725.84;5115024;28;20030;-36
2023/12/29 01:49:47;;;;;;;6.82;1.83;;;;;;;8.75;100.00;100717.19;5115036;28;20028;-36
2023/12/29 01:52:14;;;;;;;8.23;2.88;;;;;;;8.81;100.00;100742.44;5114946;28;20031;-36
2023/12/29 01:54:42;;;;;;;9.73;2.17;;;;;;;8.82;100.00;100738.69;5115686;28;20054;-36
2023/12/29 01:57:08;;;;;;;7.40;1.83;;;;;;;8.80;100.00;100735.41;5115077;28;20123;-36
2023/12/29 01:59:35;;;;;;;9.05;2.20;;;;;;;8.76;100.00;100718.84;5114830;28;20103;-36
2023/12/29 02:02:01;;;;;;;8.10;1.77;;;;;;;8.83;100.00;100717.94;5114754;28;20052;-36
2023/12/29 02:04:27;;;;;;;8.68;1.70;;;;;;;8.82;100.00;100719.81;5114687;28;20456;-36
2023/12/29 02:06:54;;;;;;;7.45;2.05;;;;;;;8.83;100.00;100726.03;5114739;28;20027;-36
2023/12/29 02:09:19;;;;;;;8.65;2.67;;;;;;;8.83;100.00;100715.25;5114629;28;20053;-36
2023/12/29 02:11:46;;;;;;;9.13;1.80;;;;;;;8.85;100.00;100740.97;5114588;28;20031;-36
2023/12/29 02:14:11;;;;;;;7.50;2.28;;;;;;;8.85;100.00;100738.25;5114786;28;20421;-36
2023/12/29 02:16:55;;;;;;;15.07;2.58;;;;;;;8.87;100.00;100735.34;5114821;28;20031;-36
2023/12/29 02:19:23;;;;;;;13.38;2.78;;;;;;;8.90;100.00;100740.31;5115221;28;20051;-36
2023/12/29 02:21:49;;;;;;;7.68;2.13;;;;;;;8.79;100.00;100709.50;5115333;28;20068;-36
2023/12/29 02:24:14;;;;;;;6.63;2.00;;;;;;;8.85;100.00;100716.69;5114466;28;20032;-36
2023/12/29 02:26:44;;;;;;;5.53;1.77;;;;;;;8.86;100.00;100717.50;5114720;28;20031;-36
2023/12/29 02:29:12;;;;;;;11.15;1.95;;;;;;;8.96;100.00;100729.44;5114330;28;20153;-36
2023/12/29 02:31:43;;;;;;;7.97;2.33;;;;;;;8.99;100.00;100723.59;5114107;28;20111;-36
2023/12/29 02:34:11;;;;;;;5.35;1.48;;;;;;;9.01;100.00;100715.28;5115076;28;20063;-36
2023/12/29 02:36:42;;;;;;;7.63;1.85;;;;;;;9.03;100.00;100724.00;5114719;28;20107;-36
2023/12/29 02:39:09;;;;;;;8.98;1.90;;;;;;;9.08;100.00;100720.59;5114468;28;20051;-36
2023/12/29 02:41:35;;;;;;;8.30;1.92;;;;;;;9.09;100.00;100731.19;5114976;28;20024;-36
2023/12/29 02:44:00;;;;;;;7.63;1.75;;;;;;;9.13;100.00;100732.38;5113849;28;20468;-36
2023/12/29 02:46:26;;;;;;;7.70;1.60;;;;;;;9.09;100.00;100719.56;5113942;28;20035;-36
2023/12/29 02:48:51;;;;;;;7.60;2.25;;;;;;;9.11;100.00;100728.25;5114108;28;20110;-36
2023/12/29 02:51:16;;;;;;;7.20;1.87;;;;;;;9.16;100.00;100729.22;5114462;28;20027;-36
2023/12/29 02:53:42;;;;;;;8.07;2.03;;;;;;;9.23;100.00;100739.97;5114049;28;20028;-36
2023/12/29 02:56:07;;;;;;;6.93;1.63;;;;;;;9.27;100.00;100730.34;5113772;28;20143;-36
2023/12/29 02:58:32;;;;;;;7.23;2.00;;;;;;;9.22;100.00;100728.34;5113768;28;20450;-36
2023/12/29 03:00:58;;;;;;;6.87;2.00;;;;;;;9.34;100.00;100727.59;5114834;28;20106;-36
2023/12/29 03:03:23;;;;;;;7.43;1.57;;;;;;;9.37;100.00;100736.06;5112691;28;20110;-36
2023/12/29 03:05:48;;;;;;;8.53;2.17;;;;;;;9.38;100.00;100724.22;5113934;28;20063;-36
2023/12/29 03:08:14;;;;;;;6.23;2.03;;;;;;;9.28;100.00;100707.72;5113894;28;20034;-36
2023/12/29 03:10:39;;;;;;;9.67;1.97;;;;;;;9.41;100.00;100731.84;5113846;28;20031;-36
2023/12/29 03:13:04;;;;;;;9.67;2.10;;;;;;;9.44;100.00;100731.41;5113572;28;20031;-36
2023/12/29 03:15:29;;;;;;;8.27;2.03;;;;;;;9.45;100.00;100722.25;5113868;28;20080;-36
2023/12/29 03:17:55;;;;;;;8.10;2.30;;;;;;;9.35;100.00;100700.38;5114348;28;20050;-36
2023/12/29 03:20:21;;;;;;;7.90;1.73;;;;;;;9.45;100.00;100714.16;5112812;28;20024;-36
2023/12/29 03:22:46;;;;;;;9.00;1.70;;;;;;;9.45;100.00;100710.63;5113708;28;20059;-36
2023/12/29 03:25:11;;;;;;;9.13;2.17;;;;;;;9.47;100.00;100713.94;5113387;28;20058;-36
2023/12/29 03:27:37;;;;;;;9.73;2.10;;;;;;;9.44;100.00;100709.81;5113720;28;20028;-36
2023/12/29 03:30:02;;;;;;;9.43;1.93;;;;;;;9.47;100.00;100719.34;5113641;28;20027;-36
2023/12/29 03:32:28;;;;;;;8.80;2.05;;;;;;;9.48;100.00;100720.97;5113533;28;20080;-36
2023/12/29 03:34:53;;;;;;;6.37;1.90;;;;;;;9.44;100.00;100706.28;5113185;28;20084;-36
2023/12/29 03:37:18;;;;;;;6.57;2.10;;;;;;;9.47;100.00;100709.38;5113649;28;20028;-36
2023/12/29 03:39:43;;;;;;;8.30;2.10;;;;;;;9.46;100.00;100710.41;5113868;28;20072;-36
2023/12/29 03:42:09;;;;;;;7.07;1.93;;;;;;;9.43;100.00;100707.34;5115438;28;20063;-36
2023/12/29 03:44:34;;;;;;;7.77;1.57;;;;;;;9.47;100.00;100703.97;5117532;28;20730;-36
2023/12/29 03:46:59;;;;;;;9.73;2.07;;;;;;;9.51;100.00;100707.00;5117475;28;20519;-36
2023/12/29 03:49:25;;;;;;;8.47;2.00;;;;;;;9.51;100.00;100715.13;5117662;28;20268;-36
2023/12/29 03:51:50;;;;;;;11.23;2.17;;;;;;;9.52;100.00;100714.91;5117319;28;20028;-36
2023/12/29 03:54:18;;;;;;;7.50;2.13;;;;;;;9.53;100.00;100713.03;5117257;28;20030;-36
2023/12/29 03:56:43;;;;;;;6.72;2.10;;;;;;;9.53;100.00;100704.94;5117604;28;20062;-36
2023/12/29 03:59:09;;;;;;;7.60;1.90;;;;;;;9.55;100.00;100711.72;5116862;28;20035;-37
2023/12/29 04:01:34;;;;;;;7.18;2.03;;;;;;;9.53;100.00;100707.63;5117156;28;20380;-36
2023/12/29 04:04:00;;;;;;;7.43;2.10;;;;;;;9.54;100.00;100704.69;5117074;28;20027;-36
2023/12/29 04:06:25;;;;;;;8.73;2.30;;;;;;;9.42;100.00;100695.72;5117099;28;20059;-36
2023/12/29 04:08:50;;;;;;;6.80;1.63;;;;;;;9.54;100.00;100710.09;5116986;27;20085;-36
2023/12/29 04:11:16;;;;;;;7.30;2.03;;;;;;;9.42;100.00;100681.38;5116717;28;20024;-36
2023/12/29 04:13:41;;;;;;;8.93;1.90;;;;;;;9.53;100.00;100692.25;5116624;28;20030;-36
2023/12/29 04:16:06;;;;;;;7.10;2.07;;;;;;;9.54;100.00;100691.19;5116812;28;20066;-36
2023/12/29 04:18:32;;;;;;;9.73;2.23;;;;;;;9.53;100.00;100699.53;5116798;28;20023;-36
2023/12/29 04:20:57;;;;;;;7.17;1.97;;;;;;;9.57;100.00;100713.41;5116510;27;20135;-36
2023/12/29 04:23:22;;;;;;;6.60;1.90;;;;;;;9.60;100.00;100696.72;5117022;28;20053;-36
2023/12/29 04:25:48;;;;;;;8.47;2.00;;;;;;;9.58;100.00;100696.16;5117006;28;20031;-36
2023/12/29 04:28:13;;;;;;;6.80;1.87;;;;;;;9.56;100.00;100699.06;5116583;28;20020;-36
2023/12/29 04:30:38;;;;;;;9.53;2.20;;;;;;;9.59;100.00;100705.88;5117050;28;20299;-36
2023/12/29 04:33:04;;;;;;;9.17;2.00;;;;;;;9.58;100.00;100693.44;5116824;27;20110;-36
2023/12/29 04:35:29;;;;;;;13.82;3.15;;;;;;;9.50;100.00;100692.69;5116724;28;20056;-36
2023/12/29 04:37:54;;;;;;;10.17;1.93;;;;;;;9.51;100.00;100696.22;5116773;28;20033;-36
2023/12/29 04:40:20;;;;;;;7.07;1.77;;;;;;;9.57;100.00;100713.41;5116998;28;20047;-36
2023/12/29 04:42:45;;;;;;;8.27;2.20;;;;;;;9.55;100.00;100711.72;5116721;28;20031;-36
2023/12/29 04:45:11;;;;;;;8.80;2.37;;;;;;;9.53;100.00;100702.22;5116373;28;20031;-36
2023/12/29 04:47:37;;;;;;;9.15;2.15;;;;;;;9.50;100.00;100702.66;5117054;28;20062;-36
2023/12/29 04:50:02;;;;;;;;;;;;;;;9.58;100.00;100701.56;5116702;28;20165;-36
2023/12/29 04:52:28;;;;;;;9.80;2.53;;;;;;;9.55;100.00;100700.94;5116461;28;20028;-36
2023/12/29 04:54:53;;;;;;;7.20;2.15;;;;;;;9.49;100.00;100699.16;5115972;28;20023;-36
2023/12/29 04:57:19;;;;;;;9.67;2.47;;;;;;;9.52;100.00;100712.22;5117012;28;20104;-36
2023/12/29 04:59:44;;;;;;;13.53;2.73;;;;;;;9.54;100.00;100720.88;5116036;28;20273;-36
2023/12/29 05:02:09;;;;;;;8.57;2.00;;;;;;;9.53;100.00;100713.03;5115980;28;20032;-36
2023/12/29 05:04:35;;;;;;;9.88;2.70;;;;;;;9.42;100.00;100689.47;5115909;28;20036;-36
2023/12/29 05:07:00;;;;;;;8.73;2.23;;;;;;;9.54;100.00;100709.28;5115939;28;20036;-36
2023/12/29 05:09:25;;;;;;;8.93;2.10;;;;;;;9.53;100.00;100708.44;5115848;28;20030;-36
2023/12/29 05:11:51;;;;;;;9.60;2.60;;;;;;;9.54;100.00;100717.38;5116094;28;20605;-36
2023/12/29 05:14:16;;;;;;;8.73;2.10;;;;;;;9.52;100.00;100712.22;5115672;28;20028;-36
2023/12/29 05:16:42;;;;;;;11.37;2.90;;;;;;;9.45;100.00;100703.34;5115344;28;20281;-36
2023/12/29 05:19:07;;;;;;;9.82;2.13;;;;;;;9.51;100.00;100705.13;5115333;28;20035;-36
2023/12/29 05:21:33;;;;;;;12.03;2.60;;;;;;;9.51;100.00;100709.72;5115889;28;20028;-36
2023/12/29 05:23:59;;;;;;;10.40;2.47;;;;;;;9.47;100.00;100703.16;5115226;28;20783;-36
2023/12/29 05:26:24;;;;;;;;;;;;;;;9.48;100.00;100707.50;5115643;28;20034;-36
2023/12/29 05:28:49;;;;;;;8.73;2.00;;;;;;;9.45;100.00;100713.31;5115373;28;19908;-36
2023/12/29 05:31:15;;;;;;;12.17;2.50;;;;;;;9.45;100.00;100710.63;5115426;28;20277;-36
2023/12/29 05:33:40;;;;;;;10.17;3.17;;;;;;;9.43;100.00;100704.66;5116130;27;20028;-36
2023/12/29 05:36:10;;;;;;;12.07;2.53;;;;;;;9.43;100.00;100710.88;5114991;28;20034;-36
2023/12/29 05:38:37;;;;;;;9.52;2.70;;;;;;;9.42;100.00;100717.31;5115570;28;20027;-36
2023/12/29 05:41:04;;;;;;;9.95;2.53;;;;;;;9.39;100.00;100711.53;5115451;28;20092;-36
2023/12/29 05:43:31;;;;;;;8.68;2.30;;;;;;;9.35;100.00;100699.53;5115608;28;20032;-36
2023/12/29 05:45:56;;;;;;;8.38;2.10;;;;;;;9.34;100.00;100698.72;5115172;28;20035;-36
2023/12/29 05:48:21;;;;;;;7.40;2.00;;;;;;;9.29;100.00;100706.69;5115383;28;20023;-36
2023/12/29 05:50:47;;;;;;;11.07;2.80;;;;;;;9.27;100.00;100698.81;5114998;28;20027;-36
2023/12/29 05:53:13;;;;;;;8.53;2.13;;;;;;;9.28;100.00;100696.94;5115501;28;20061;-36
2023/12/29 05:55:39;;;;;;;8.75;1.90;;;;;;;9.34;100.00;100704.13;5115032;28;20290;-36
2023/12/29 05:58:04;;;;;;;7.10;1.95;;;;;;;9.30;100.00;100702.91;5114573;28;20420;-36
2023/12/29 06:00:29;;;;;;;6.90;1.90;;;;;;;9.36;100.00;100702.00;5114561;28;20024;-36
2023/12/29 06:02:55;;;;;;;10.87;2.03;;;;;;;9.36;100.00;100707.41;5115162;28;20264;-36
2023/12/29 06:05:20;;;;;;;8.07;2.07;;;;;;;9.37;100.00;100713.63;5114275;28;20063;-36
2023/12/29 06:07:45;;;;;;;8.33;1.90;;;;;;;9.34;100.00;100698.72;5115029;28;20028;-36
2023/12/29 06:10:11;;;;;;;8.50;2.43;;;;;;;9.31;100.00;100707.25;5114625;28;20472;-36
2023/12/29 06:12:37;;;;;;;8.75;1.90;;;;;;;9.34;100.00;100706.00;5114966;28;20073;-36
2023/12/29 06:15:02;;;;;;;5.53;1.83;;;;;;;9.32;100.00;100700.00;5115011;28;20032;-36
2023/12/29 06:17:28;;;;;;;10.50;1.90;;;;;;;9.31;100.00;100720.75;5114554;28;20437;-36
2023/12/29 06:19:53;;;;;;;7.30;1.93;;;;;;;9.23;100.00;100708.41;5114262;28;20047;-36
2023/12/29 06:22:18;;;;;;;11.17;2.40;;;;;;;9.22;100.00;100705.91;5114485;28;20080;-36
2023/12/29 06:24:44;;;;;;;9.57;2.50;;;;;;;9.13;100.00;100696.50;5114394;28;20028;-36
2023/12/29 06:27:12;;;;;;;7.38;1.67;;;;;;;9.09;100.00;100706.09;5114393;28;20035;-36
2023/12/29 06:29:37;;;;;;;5.88;1.80;;;;;;;9.06;100.00;100703.81;5114084;28;20031;-36
2023/12/29 06:32:04;;;;;;;6.15;1.83;;;;;;;8.91;100.00;100677.22;5114628;28;20023;-37
2023/12/29 06:34:29;;;;;;;;;;;;;;;9.07;100.00;100706.28;5114946;28;20023;-36
2023/12/29 06:36:54;;;;;;;9.75;2.42;;;;;;;9.02;100.00;100706.13;5114199;28;19911;-36
2023/12/29 06:39:20;;;;;;;7.37;2.20;;;;;;;9.02;100.00;100706.97;5114264;28;20031;-36
2023/12/29 06:41:45;;;;;;;6.97;1.77;;;;;;;8.97;100.00;100693.31;5114826;28;20297;-36
2023/12/29 06:44:11;;;;;;;7.53;2.53;;;;;;;9.03;100.00;100705.94;5114951;28;20023;-36
2023/12/29 06:46:39;;;;;;;5.87;1.90;;;;;;;9.06;100.00;100701.94;5114191;28;20032;-36
2023/12/29 06:49:08;;;;;;;9.27;2.10;;;;;;;9.02;100.00;100706.97;5114375;28;20032;-36
2023/12/29 06:51:34;;;;;;;7.25;1.73;;;;;;;9.05;100.00;100707.56;5114378;28;20028;-36
2023/12/29 06:53:59;;;;;;;6.13;1.60;;;;;;;9.06;100.00;100704.66;5113976;28;20028;-36
2023/12/29 06:56:25;;;;;;;8.25;2.03;;;;;;;9.04;100.00;100701.34;5114517;28;20048;-36
2023/12/29 06:58:51;;;;;;;;;;;;;;;9.07;100.00;100700.88;5114702;28;20383;-36
2023/12/29 07:01:16;;;;;;;6.35;1.27;;;;;;;9.03;100.00;100697.84;5114051;28;19912;-36
2023/12/29 07:03:41;;;;;;;7.07;2.13;;;;;;;9.04;100.00;100685.19;5114167;28;20038;-36
2023/12/29 07:06:07;;;;;;;17.73;3.27;;;;;;;9.07;100.00;100697.38;5114238;28;20042;-36
2023/12/29 07:08:32;;;;;;;5.97;1.60;;;;;;;9.01;100.00;100680.22;5114156;28;20076;-36
2023/12/29 07:10:58;;;;;;;8.33;1.93;;;;;;;9.07;100.00;100687.41;5114204;28;20336;-36
2023/12/29 07:13:23;;;;;;;6.15;1.90;;;;;;;9.08;100.00;100689.06;5113546;28;20480;-36
2023/12/29 07:15:49;;;;;;;5.57;1.87;;;;;;;9.08;100.00;100677.44;5114139;28;20034;-36
2023/12/29 07:18:15;;;;;;;7.60;1.73;;;;;;;9.11;100.00;100666.22;5116670;28;20024;-36
2023/12/29 07:20:41;;;;;;;8.93;1.83;;;;;;;9.12;100.00;100679.47;5117763;28;20020;-36
2023/12/29 07:23:07;;;;;;;10.60;1.98;;;;;;;9.15;100.00;100679.03;5117907;28;20029;-37
2023/12/29 07:25:32;;;;;;;7.15;1.77;;;;;;;9.16;100.00;100698.72;5118209;28;20418;-36
2023/12/29 07:27:57;;;;;;;8.40;2.27;;;;;;;9.10;100.00;100689.66;5118128;28;20024;-36
2023/12/29 07:30:23;;;;;;;5.03;1.60;;;;;;;9.13;100.00;100693.81;5117816;28;20027;-36
2023/12/29 07:32:48;;;;;;;6.32;1.67;;;;;;;9.09;100.00;100673.72;5117777;28;20262;-36
2023/12/29 07:35:17;;;;;;;7.63;1.93;;;;;;;9.12;100.00;100684.84;5117638;28;20019;-36
2023/12/29 07:37:43;;;;;;;5.97;1.58;;;;;;;9.14;100.00;100679.25;5118199;28;20023;-36
2023/12/29 07:40:11;;;;;;;7.28;1.73;;;;;;;9.13;100.00;100689.22;5117831;28;20357;-36
2023/12/29 07:42:37;;;;;;;5.32;1.45;;;;;;;9.14;100.00;100692.75;5117538;28;20027;-36
2023/12/29 07:45:03;;;;;;;8.90;1.50;;;;;;;9.15;100.00;100697.91;5117504;28;20100;-36
2023/12/29 07:47:28;;;;;;;6.95;1.90;;;;;;;9.16;100.00;100687.94;5117517;28;20062;-36
2023/12/29 07:49:53;;;;;;;6.23;1.50;;;;;;;9.12;100.00;100678.63;5117917;28;20019;-36
2023/12/29 07:52:19;;;;;;;6.83;1.43;;;;;;;9.16;100.00;100691.44;5117740;28;20675;-36
2023/12/29 07:54:44;;;;;;;5.00;1.50;;;;;;;9.20;100.00;100695.34;5117527;28;20039;-36
2023/12/29 07:57:09;;;;;;;6.30;1.70;;;;;;;9.21;100.00;100683.50;5117672;28;20135;-36
2023/12/29 07:59:35;;;;;;;6.30;1.50;;;;;;;9.19;100.00;100701.00;5117479;28;20024;-36
2023/12/29 08:02:00;;;;;;;5.57;1.70;;;;;;;9.25;100.00;100716.25;5117194;28;20026;-36
2023/12/29 08:04:26;;;;;;;5.67;1.30;;;;;;;9.28;100.00;100711.25;5117095;28;20032;-36
2023/12/29 08:06:51;;;;;;;6.07;1.57;;;;;;;9.28;100.00;100695.06;5116633;28;20281;-36
2023/12/29 08:09:16;;;;;;;5.22;1.20;;;;;;;9.31;100.00;100687.56;5117507;28;20031;-36
2023/12/29 08:11:43;;;;;;;4.13;1.20;;;;;;;9.29;100.00;100685.09;5116873;28;20028;-36
2023/12/29 08:14:08;;;;;;;6.18;1.58;;;;;;;9.27;100.00;100676.38;5117163;28;20284;-36
2023/12/29 08:16:39;;;;;;;3.10;0.97;;;;;;;9.24;100.00;100676.84;5117718;28;20024;-36
2023/12/29 08:19:04;;;;;;;4.13;1.25;;;;;;;9.30;100.00;100689.44;5117216;28;20023;-36
2023/12/29 08:21:29;;;;;;;3.13;1.17;;;;;;;9.23;100.00;100676.03;5117456;28;20054;-36
2023/12/29 08:23:54;;;;;;;3.37;0.80;;;;;;;9.29;100.00;100677.81;5117581;28;20160;-36
2023/12/29 08:26:20;;;;;;;3.93;1.03;;;;;;;9.32;100.00;100703.53;5116807;28;20027;-36
2023/12/29 08:28:45;;;;;;;3.87;1.27;;;;;;;9.33;100.00;100704.34;5116486;27;20274;-36
2023/12/29 08:31:11;;;;;;;3.90;1.10;;;;;;;9.34;100.00;100697.91;5116978;28;20104;-36
2023/12/29 08:33:36;;;;;;;2.97;1.00;;;;;;;9.32;100.00;100689.19;5116621;27;20273;-36
2023/12/29 08:36:03;;;;;;;3.03;1.20;;;;;;;9.33;100.00;100702.47;5116485;28;20387;-36
2023/12/29 08:38:29;;;;;;;2.80;0.88;;;;;;;9.37;100.00;100683.94;5116976;28;20273;-36
2023/12/29 08:40:54;;;;;;;2.80;1.02;;;;;;;9.37;100.00;100695.59;5116991;28;20031;-36
2023/12/29 08:43:21;;;;;;;3.13;1.00;;;;;;;9.34;100.00;100692.50;5116462;28;20375;-36
2023/12/29 08:45:49;;;;;;;3.75;1.48;;;;;;;9.32;100.00;100690.03;5117159;28;20321;-36
2023/12/29 08:48:15;;;;;;;2.75;0.90;;;;;;;9.39;100.00;100704.25;5116832;28;20375;-36
2023/12/29 08:50:40;;;;;;;;;;;;;;;9.42;100.00;100709.22;5116968;28;20024;-36
2023/12/29 08:53:06;;;;;;;3.38;0.90;;;;;;;9.41;100.00;100709.44;5116236;28;20325;-36
2023/12/29 08:55:31;;;;;;;3.33;1.00;;;;;;;9.44;100.00;100725.19;5116154;27;20062;-36
2023/12/29 08:57:57;;;;;;;3.80;1.17;;;;;;;9.36;100.00;100691.22;5116174;28;20283;-36
2023/12/29 09:00:23;;;;;;;4.18;0.95;;;;;;;9.45;100.00;100711.44;5116388;28;20417;-36
2023/12/29 09:02:48;;;;;;;2.95;0.80;;;;;;;9.45;100.00;100705.22;5115834;28;20031;-36
2023/12/29 09:05:14;;;;;;;2.90;1.10;;;;;;;9.42;100.00;100702.97;5116218;28;20034;-36
2023/12/29 09:07:39;;;;;;;2.63;0.90;;;;;;;9.42;100.00;100711.91;5115986;28;20365;-36
2023/12/29 09:10:08;;;;;;;3.78;0.85;;;;;;;9.48;100.00;100704.78;5115815;28;20024;-36
2023/12/29 09:12:34;;;;;;;5.22;1.30;;;;;;;9.47;100.00;100724.75;5115813;28;20031;-36
2023/12/29 09:14:59;;;;;;;;;;;;;;;9.48;100.00;100715.59;5116708;28;20137;-36
2023/12/29 09:17:24;;;;;;;1.63;0.60;;;;;;;9.45;100.00;100722.25;5115441;28;19953;-36
2023/12/29 09:19:50;;;;;;;4.17;1.13;;;;;;;9.44;100.00;100725.19;5116185;28;20620;-36
2023/12/29 09:22:15;;;;;;;3.30;0.90;;;;;;;9.39;100.00;100738.53;5116010;28;20024;-36
2023/12/29 09:24:42;;;;;;;3.88;1.00;;;;;;;9.27;100.00;100733.91;5115589;28;20028;-36
2023/12/29 09:27:07;;;;;;;2.10;0.60;;;;;;;9.20;100.00;100733.13;5115218;28;20036;-36
2023/12/29 09:29:33;;;;;;;2.08;0.70;;;;;;;9.20;100.00;100733.13;5116327;28;20035;-36
2023/12/29 09:31:58;;;;;;;3.57;0.93;;;;;;;9.13;100.00;100727.00;5115239;28;20112;-36
2023/12/29 09:34:24;;;;;;;3.13;1.17;;;;;;;9.19;100.00;100744.16;5115100;28;20035;-36
2023/12/29 09:36:49;;;;;;;3.87;0.80;;;;;;;9.13;100.00;100718.91;5115601;28;20034;-36
2023/12/29 09:39:14;;;;;;;3.13;0.90;;;;;;;9.21;100.00;100736.66;5114827;28;20371;-36
2023/12/29 09:41:45;;;;;;;1.90;0.70;;;;;;;9.13;100.00;100712.69;5115484;28;20024;-36
2023/12/29 09:44:14;;;;;;;2.08;0.85;;;;;;;9.19;100.00;100731.50;5115972;28;20024;-35
2023/12/29 09:46:41;;;;;;;3.22;0.95;;;;;;;9.27;100.00;100735.75;5115661;28;20392;-36
2023/12/29 09:49:08;;;;;;;3.65;0.85;;;;;;;9.28;100.00;100734.72;5113805;28;20456;-36
2023/12/29 09:51:35;;;;;;;2.78;0.70;;;;;;;9.30;100.00;100729.91;5114817;28;20051;-36
2023/12/29 09:54:01;;;;;;;3.70;0.73;;;;;;;9.32;100.00;100740.47;5115524;27;20365;-36
2023/12/29 09:56:27;;;;;;;1.70;0.60;;;;;;;9.33;100.00;100745.66;5115224;28;20134;-36
2023/12/29 09:58:54;;;;;;;1.77;0.63;;;;;;;9.34;100.00;100752.69;5114921;28;20437;-36
2023/12/29 10:01:22;;;;;;;3.25;0.95;;;;;;;9.32;100.00;100738.63;5114885;27;20085;-35
2023/12/29 10:03:48;;;;;;;2.30;0.77;;;;;;;9.35;100.00;100750.81;5114747;28;20456;-36
2023/12/29 10:06:19;;;;;;;1.35;0.57;;;;;;;9.41;100.00;100749.91;5115327;28;20428;-35
2023/12/29 10:08:47;;;;;;;2.15;0.60;;;;;;;9.38;100.00;100742.28;5115000;28;20027;-36
2023/12/29 10:11:17;;;;;;;2.35;0.70;;;;;;;9.45;100.00;100753.81;5114683;28;20039;-36
2023/12/29 10:13:45;;;;;;;1.15;0.40;;;;;;;9.47;100.00;100749.84;5114952;28;20104;-36
2023/12/29 10:16:40;;;;;;;1.83;0.50;;;;;;;9.51;100.00;100756.44;5114827;28;20387;-36
2023/12/29 10:19:17;;;;;;;1.65;0.75;;;;;;;9.58;100.00;100763.63;5115144;28;20023;-36
2023/12/29 10:22:26;;;;;;;1.50;0.70;;;;;;;9.61;100.00;100773.97;5114765;28;20047;-36
2023/12/29 10:24:52;;;;;;;1.67;0.60;;;;;;;9.61;100.00;100771.28;5106888;28;20045;-36
2023/12/29 10:27:18;;;;;;;2.35;0.80;;;;;;;9.57;100.00;100770.09;5114433;28;20475;-36
2023/12/29 10:29:43;;;;;;;3.85;0.80;;;;;;;9.65;100.00;100777.88;5114894;28;20031;-36
2023/12/29 10:32:09;;;;;;;1.80;0.60;;;;;;;9.64;100.00;100776.22;5114366;28;20051;-36
2023/12/29 10:34:35;;;;;;;;;;;;;;;9.69;100.00;100792.56;5114388;28;20464;-36
2023/12/29 10:37:03;;;;;;;1.67;0.60;;;;;;;9.66;100.00;100782.22;5114180;28;19918;-36
2023/12/29 10:39:29;;;;;;;1.52;0.65;;;;;;;9.69;100.00;100798.78;5114134;28;20028;-36
2023/12/29 10:42:05;;;;;;;;;;;;;;;9.72;100.00;100795.66;5115259;28;20032;-36
2023/12/29 10:44:31;;;;;;;2.85;0.50;;;;;;;9.65;100.00;100785.97;5114191;28;19998;-36
2023/12/29 10:46:57;;;;;;;1.15;0.60;;;;;;;9.74;100.00;100798.13;5114172;28;20031;-36
2023/12/29 10:49:22;;;;;;;4.20;1.00;;;;;;;9.74;100.00;100795.41;5113673;28;20032;-37
2023/12/29 10:51:48;;;;;;;1.87;0.77;;;;;;;9.75;100.00;100794.34;5114231;28;20106;-37
2023/12/29 10:54:23;;;;;;;4.40;0.95;;;;;;;9.69;100.00;100781.78;5114013;28;20028;-35
2023/12/29 10:57:01;;;;;;;2.17;0.80;;;;;;;9.72;100.00;100784.84;5113882;28;20062;-35
2023/12/29 10:59:27;;;;;;;2.50;1.00;;;;;;;9.74;100.00;100779.22;5114253;28;20043;-34
2023/12/29 11:01:53;;;;;;;3.20;0.97;;;;;;;9.82;100.00;100786.19;5114316;28;20562;-35
2023/12/29 11:04:22;;;;;;;2.38;1.02;;;;;;;9.83;100.00;100783.25;5114716;28;20058;-37
2023/12/29 11:06:48;;;;;;;2.20;0.73;;;;;;;9.87;100.00;100789.03;5114586;28;20081;-35
2023/12/29 11:09:13;;;;;;;;;;;;;;;9.90;100.00;100773.19;5114604;28;20057;-35
2023/12/29 11:11:39;;;;;;;2.35;0.75;;;;;;;9.91;100.00;100780.25;5113629;27;19947;-35
2023/12/29 11:14:05;;;;;;;3.17;0.63;;;;;;;9.95;100.00;100777.91;5113842;28;20023;-35
2023/12/29 11:16:34;;;;;;;4.82;0.95;;;;;;;9.96;100.00;100777.69;5113887;28;20031;-36
2023/12/29 11:19:01;;;;;;;3.58;0.98;;;;;;;10.01;100.00;100769.72;5114051;28;20059;-35
2023/12/29 11:21:30;;;;;;;3.03;1.05;;;;;;;10.03;100.00;100769.47;5114336;28;20019;-35